Time;durP1;ratioP1;P1;durP2;ratioP2;P2;SDS_P1;SDS_P2;PMS_P1;PMS_P2;Temp;Humidity;BMP_temperature;BMP_pressure;BME280_temperature;BME280_humidity;BME280_pressure;Samples;Min_cycle;Max_cycle;Signal;HPM_P1;HPM_P2
2022/05/18 00:00:55;;;;;;;10.95;6.45;;;;;;;;;;4978970;28;20042;-85
2022/05/18 00:03:24;;;;;;;8.50;5.95;;;;;;;;;;4996606;28;20053;-85
2022/05/18 00:05:50;;;;;;;11.02;5.78;;;;;;;;;;4996001;28;20093;-85
2022/05/18 00:08:16;;;;;;;11.55;6.65;;;;;;;;;;4978645;28;20038;-85
2022/05/18 00:10:43;;;;;;;9.73;5.90;;;;;;;;;;4962405;28;20060;-86
2022/05/18 00:13:10;;;;;;;9.10;5.60;;;;;;;;;;4978869;28;20045;-85
2022/05/18 00:15:36;;;;;;;10.98;5.53;;;;;;;;;;4978593;28;20038;-85
2022/05/18 00:18:02;;;;;;;9.40;5.55;;;;;;;;;;4978664;28;20482;-85
2022/05/18 00:20:28;;;;;;;11.30;5.97;;;;;;;;;;4978195;28;20130;-85
2022/05/18 00:22:59;;;;;;;10.60;6.00;;;;;;;;;;4978461;28;20084;-85
2022/05/18 00:25:26;;;;;;;10.93;6.25;;;;;;;;;;4978397;28;20042;-85
2022/05/18 00:27:52;;;;;;;9.32;6.30;;;;;;;;;;4996009;28;20092;-85
2022/05/18 00:30:19;;;;;;;9.90;5.93;;;;;;;;;;4978376;28;20488;-85
2022/05/18 00:32:45;;;;;;;11.70;6.40;;;;;;;;;;4978422;28;20402;-85
2022/05/18 00:35:11;;;;;;;10.32;6.82;;;;;;;;;;4978386;28;20038;-85
2022/05/18 00:37:37;;;;;;;10.75;6.43;;;;;;;;;;4962331;28;20038;-85
2022/05/18 00:40:04;;;;;;;8.60;6.13;;;;;;;;;;4977545;28;20060;-85
2022/05/18 00:42:30;;;;;;;9.30;5.65;;;;;;;;;;4978058;28;20038;-85
2022/05/18 00:44:56;;;;;;;9.75;6.20;;;;;;;;;;4995517;28;20050;-85
2022/05/18 00:47:22;;;;;;;10.35;6.22;;;;;;;;;;4978150;28;20046;-85
2022/05/18 00:49:51;;;;;;;10.88;6.63;;;;;;;;;;4995463;28;20104;-85
2022/05/18 00:52:21;;;;;;;11.18;6.30;;;;;;;;;;4961896;28;20038;-85
2022/05/18 00:54:47;;;;;;;11.02;6.22;;;;;;;;;;4978086;28;20062;-85
2022/05/18 00:57:19;;;;;;;8.80;6.15;;;;;;;;;;4995307;28;20034;-85
2022/05/18 00:59:49;;;;;;;11.13;6.30;;;;;;;;;;4977625;28;20081;-85
2022/05/18 01:02:15;;;;;;;9.27;6.55;;;;;;;;;;4977711;28;20046;-85
2022/05/18 01:04:43;;;;;;;8.90;5.70;;;;;;;;;;4995212;28;20130;-85
2022/05/18 01:07:11;;;;;;;11.65;6.53;;;;;;;;;;4961416;28;20058;-85
2022/05/18 01:09:38;;;;;;;10.93;6.40;;;;;;;;;;4977600;28;20038;-85
2022/05/18 01:12:06;;;;;;;11.35;6.45;;;;;;;;;;4977362;28;20050;-85
2022/05/18 01:14:50;;;;;;;10.30;6.25;;;;;;;;;;4977378;28;20436;-85
2022/05/18 01:17:18;;;;;;;10.98;6.15;;;;;;;;;;4977267;28;20107;-86
2022/05/18 01:19:46;;;;;;;13.15;6.75;;;;;;;;;;4977280;28;20046;-85
2022/05/18 01:22:18;;;;;;;9.10;6.57;;;;;;;;;;4977596;28;20124;-87
2022/05/18 01:24:55;;;;;;;13.95;6.45;;;;;;;;;;4977305;28;20042;-85
2022/05/18 01:27:21;;;;;;;11.20;6.57;;;;;;;;;;4976996;28;20049;-85
2022/05/18 01:29:47;;;;;;;10.18;6.53;;;;;;;;;;4994602;28;20043;-85
2022/05/18 01:32:15;;;;;;;10.68;6.70;;;;;;;;;;4976931;28;20386;-85
2022/05/18 01:34:42;;;;;;;10.70;6.25;;;;;;;;;;4960886;28;20046;-85
2022/05/18 01:37:09;;;;;;;11.43;6.45;;;;;;;;;;4977141;28;20447;-85
2022/05/18 01:39:41;;;;;;;12.30;6.47;;;;;;;;;;4994272;28;20482;-84
2022/05/18 01:42:07;;;;;;;9.00;6.25;;;;;;;;;;4977045;28;20042;-85
2022/05/18 01:44:34;;;;;;;13.15;6.93;;;;;;;;;;4976882;28;20125;-84
2022/05/18 01:47:00;;;;;;;12.18;6.75;;;;;;;;;;4976694;28;20430;-85
2022/05/18 01:49:26;;;;;;;14.25;7.10;;;;;;;;;;4976789;28;20084;-84
2022/05/18 01:51:53;;;;;;;9.88;6.68;;;;;;;;;;4976057;28;20485;-84
2022/05/18 01:54:19;;;;;;;10.50;6.50;;;;;;;;;;4976616;28;20050;-85
2022/05/18 01:56:45;;;;;;;11.00;6.55;;;;;;;;;;4976817;28;20070;-85
2022/05/18 01:59:12;;;;;;;12.77;7.03;;;;;;;;;;4976925;28;20054;-85
2022/05/18 02:01:38;;;;;;;10.63;6.50;;;;;;;;;;4976470;28;20046;-85
2022/05/18 02:04:04;;;;;;;11.40;6.38;;;;;;;;;;4976804;28;20394;-85
2022/05/18 02:06:32;;;;;;;11.45;6.53;;;;;;;;;;4976557;28;20541;-85
2022/05/18 02:08:58;;;;;;;12.40;6.30;;;;;;;;;;4976552;28;20042;-85
2022/05/18 02:11:24;;;;;;;10.75;6.68;;;;;;;;;;4976501;28;20068;-85
2022/05/18 02:13:51;;;;;;;11.73;7.28;;;;;;;;;;4976290;28;20042;-86
2022/05/18 02:16:17;;;;;;;10.75;6.97;;;;;;;;;;4976518;28;20170;-85
2022/05/18 02:18:43;;;;;;;10.15;6.35;;;;;;;;;;4993685;28;20038;-85
2022/05/18 02:21:10;;;;;;;11.00;6.63;;;;;;;;;;4993512;28;20125;-85
2022/05/18 02:23:37;;;;;;;10.70;6.55;;;;;;;;;;4976276;28;20125;-85
2022/05/18 02:26:10;;;;;;;12.57;6.90;;;;;;;;;;4960014;28;20073;-85
2022/05/18 02:28:36;;;;;;;9.60;6.82;;;;;;;;;;4976270;28;20070;-85
2022/05/18 02:31:03;;;;;;;11.52;6.82;;;;;;;;;;4976224;28;20046;-85
2022/05/18 02:33:29;;;;;;;8.85;6.10;;;;;;;;;;4976260;28;20047;-85
2022/05/18 02:35:55;;;;;;;11.52;7.07;;;;;;;;;;4976323;28;20045;-86
2022/05/18 02:38:21;;;;;;;9.68;6.05;;;;;;;;;;4975819;28;20117;-85
2022/05/18 02:40:47;;;;;;;9.85;6.30;;;;;;;;;;4976066;28;20039;-85
2022/05/18 02:43:13;;;;;;;12.82;6.32;;;;;;;;;;4976182;28;20492;-84
2022/05/18 02:45:39;;;;;;;11.60;6.22;;;;;;;;;;4976138;28;20050;-85
2022/05/18 02:48:05;;;;;;;10.80;6.75;;;;;;;;;;4975837;28;20049;-84
2022/05/18 02:50:33;;;;;;;9.00;6.70;;;;;;;;;;4993481;28;20070;-84
2022/05/18 02:52:59;;;;;;;11.35;6.20;;;;;;;;;;4959590;28;20089;-85
2022/05/18 02:58:10;;;;;;;10.25;6.38;;;;;;;;;;4993306;28;20050;-84
2022/05/18 03:00:36;;;;;;;11.07;6.15;;;;;;;;;;4993620;28;20117;-85
2022/05/18 03:03:02;;;;;;;10.98;7.05;;;;;;;;;;4978715;28;20120;-85
2022/05/18 03:05:29;;;;;;;11.05;6.03;;;;;;;;;;4980260;28;20182;-85
2022/05/18 03:07:57;;;;;;;8.43;5.88;;;;;;;;;;4979422;28;20053;-85
2022/05/18 03:10:23;;;;;;;9.43;5.93;;;;;;;;;;4979738;28;20047;-85
2022/05/18 03:12:49;;;;;;;12.15;6.32;;;;;;;;;;4963672;28;20046;-86
2022/05/18 03:15:15;;;;;;;11.35;6.53;;;;;;;;;;4979969;28;20105;-86
2022/05/18 03:17:41;;;;;;;10.25;5.63;;;;;;;;;;4979459;28;20493;-86
2022/05/18 03:20:08;;;;;;;9.50;6.28;;;;;;;;;;4979840;28;20093;-85
2022/05/18 03:25:19;;;;;;;9.63;5.68;;;;;;;;;;4996973;28;20046;-85
2022/05/18 03:27:45;;;;;;;13.48;6.32;;;;;;;;;;4979277;28;20046;-85
2022/05/18 03:30:12;;;;;;;10.35;6.22;;;;;;;;;;4979503;28;20038;-85
2022/05/18 03:32:40;;;;;;;10.43;5.88;;;;;;;;;;4979245;28;20267;-85
2022/05/18 03:35:06;;;;;;;11.43;6.47;;;;;;;;;;4979423;28;20047;-85
2022/05/18 03:37:32;;;;;;;8.43;6.07;;;;;;;;;;4979060;28;20039;-85
2022/05/18 03:39:58;;;;;;;8.27;6.10;;;;;;;;;;4979198;28;20049;-85
2022/05/18 03:42:24;;;;;;;9.48;6.07;;;;;;;;;;4979032;28;20042;-85
2022/05/18 03:44:50;;;;;;;11.43;6.40;;;;;;;;;;4996759;28;20041;-85
2022/05/18 03:47:16;;;;;;;12.10;6.28;;;;;;;;;;4979058;28;20042;-86
2022/05/18 03:49:42;;;;;;;9.52;5.65;;;;;;;;;;4978893;28;20605;-85
2022/05/18 03:52:08;;;;;;;9.93;6.22;;;;;;;;;;4978770;28;20434;-85
2022/05/18 03:54:34;;;;;;;10.35;6.40;;;;;;;;;;4979000;28;20082;-86
2022/05/18 03:57:00;;;;;;;8.93;6.00;;;;;;;;;;4978970;28;20122;-85
2022/05/18 03:59:26;;;;;;;8.98;5.75;;;;;;;;;;4996272;28;20490;-85
2022/05/18 04:01:53;;;;;;;10.57;6.75;;;;;;;;;;4978635;28;20117;-86
2022/05/18 04:04:19;;;;;;;12.77;6.53;;;;;;;;;;4978892;28;20125;-86
2022/05/18 04:06:45;;;;;;;10.18;5.80;;;;;;;;;;4978732;28;20077;-85
2022/05/18 04:09:11;;;;;;;7.88;6.40;;;;;;;;;;4978516;28;20072;-86
2022/05/18 04:11:37;;;;;;;12.40;6.47;;;;;;;;;;4978590;28;20046;-85
2022/05/18 04:14:03;;;;;;;10.75;6.30;;;;;;;;;;4977570;28;20134;-85
2022/05/18 04:16:29;;;;;;;8.57;5.82;;;;;;;;;;4978547;28;20046;-85
2022/05/18 04:18:55;;;;;;;10.13;6.25;;;;;;;;;;4978229;28;20069;-85
2022/05/18 04:21:21;;;;;;;8.98;5.72;;;;;;;;;;4978322;28;20058;-85
2022/05/18 04:23:49;;;;;;;10.48;6.50;;;;;;;;;;4978432;28;20551;-85
2022/05/18 04:26:15;;;;;;;11.65;6.35;;;;;;;;;;4962294;28;20516;-85
2022/05/18 04:28:41;;;;;;;8.93;5.85;;;;;;;;;;4978083;28;20046;-85
2022/05/18 04:31:07;;;;;;;8.57;5.65;;;;;;;;;;4978486;28;20042;-85
2022/05/18 04:33:33;;;;;;;8.55;5.97;;;;;;;;;;4977908;28;20038;-85
2022/05/18 04:36:02;;;;;;;10.70;5.07;;;;;;;;;;4978203;28;20401;-85
2022/05/18 04:38:28;;;;;;;11.20;5.95;;;;;;;;;;4978177;28;20038;-85
2022/05/18 04:40:55;;;;;;;11.10;5.55;;;;;;;;;;4978178;28;20053;-85
2022/05/18 04:43:21;;;;;;;9.68;5.45;;;;;;;;;;4977867;28;20434;-86
2022/05/18 04:45:50;;;;;;;9.05;5.70;;;;;;;;;;4962624;28;20053;-86
2022/05/18 04:48:17;;;;;;;10.63;5.15;;;;;;;;;;4995507;28;20508;-86
2022/05/18 04:50:44;;;;;;;7.25;4.88;;;;;;;;;;4995498;28;20105;-85
2022/05/18 04:53:10;;;;;;;7.72;5.00;;;;;;;;;;4977766;28;20125;-85
2022/05/18 04:55:36;;;;;;;10.52;5.70;;;;;;;;;;4978106;28;20034;-86
2022/05/18 04:58:03;;;;;;;8.88;5.30;;;;;;;;;;4977546;28;20397;-86
2022/05/18 05:00:29;;;;;;;8.10;5.30;;;;;;;;;;4961776;28;20466;-86
2022/05/18 05:02:57;;;;;;;8.52;5.22;;;;;;;;;;4977572;28;20146;-88
2022/05/18 05:05:24;;;;;;;8.68;5.40;;;;;;;;;;4961650;28;20046;-85
2022/05/18 05:07:50;;;;;;;8.70;4.93;;;;;;;;;;4977622;28;20506;-86
2022/05/18 05:10:18;;;;;;;11.15;5.95;;;;;;;;;;4977769;28;20042;-86
2022/05/18 05:12:45;;;;;;;10.25;5.75;;;;;;;;;;4977579;28;20387;-86
2022/05/18 05:15:11;;;;;;;9.52;5.30;;;;;;;;;;4961635;28;20444;-87
2022/05/18 05:17:38;;;;;;;13.45;5.93;;;;;;;;;;4977407;28;20606;-86
2022/05/18 05:20:04;;;;;;;8.98;6.32;;;;;;;;;;4977179;28;20128;-87
2022/05/18 05:22:31;;;;;;;9.10;5.88;;;;;;;;;;4977665;28;20074;-87
2022/05/18 05:24:58;;;;;;;8.07;5.57;;;;;;;;;;4960669;28;20053;-86
2022/05/18 05:27:24;;;;;;;9.98;6.15;;;;;;;;;;4976931;28;20129;-86
2022/05/18 05:29:50;;;;;;;10.18;6.30;;;;;;;;;;4977101;28;20105;-87
2022/05/18 05:32:16;;;;;;;9.15;6.43;;;;;;;;;;4977498;28;20101;-86
2022/05/18 05:34:42;;;;;;;8.55;6.25;;;;;;;;;;4976907;28;20084;-86
2022/05/18 05:37:08;;;;;;;10.13;6.47;;;;;;;;;;4977113;28;20040;-86
2022/05/18 05:39:34;;;;;;;8.93;6.20;;;;;;;;;;4977092;28;20193;-86
2022/05/18 05:42:00;;;;;;;10.57;6.65;;;;;;;;;;4965461;28;20039;-85
2022/05/18 05:44:27;;;;;;;10.55;7.00;;;;;;;;;;4955991;28;20109;-86
2022/05/18 05:46:53;;;;;;;12.07;7.57;;;;;;;;;;4955530;28;20046;-85
2022/05/18 05:49:19;;;;;;;11.77;7.45;;;;;;;;;;4953779;28;20059;-86
2022/05/18 05:51:45;;;;;;;12.38;7.63;;;;;;;;;;4953676;29;20054;-86
2022/05/18 05:54:11;;;;;;;12.23;7.85;;;;;;;;;;4965314;28;20474;-86
2022/05/18 05:56:37;;;;;;;13.02;7.93;;;;;;;;;;4973113;28;20035;-87
2022/05/18 05:59:03;;;;;;;10.73;7.70;;;;;;;;;;4972719;28;20121;-85
2022/05/18 06:01:29;;;;;;;12.25;8.45;;;;;;;;;;4973005;28;20418;-87
2022/05/18 06:03:55;;;;;;;11.82;8.00;;;;;;;;;;4972851;28;20046;-87
2022/05/18 06:06:21;;;;;;;11.18;7.43;;;;;;;;;;4973062;28;20047;-86
2022/05/18 06:08:49;;;;;;;12.90;8.55;;;;;;;;;;4972722;28;20051;-86
2022/05/18 06:11:15;;;;;;;10.90;7.97;;;;;;;;;;4956893;28;20039;-86
2022/05/18 06:13:41;;;;;;;12.73;8.20;;;;;;;;;;4972730;28;20549;-86
2022/05/18 06:16:09;;;;;;;12.57;8.55;;;;;;;;;;4973161;28;20068;-85
2022/05/18 06:18:36;;;;;;;12.82;8.73;;;;;;;;;;4972677;28;20047;-86
2022/05/18 06:21:02;;;;;;;12.02;8.75;;;;;;;;;;4972980;28;20088;-89
2022/05/18 06:23:28;;;;;;;11.05;8.63;;;;;;;;;;4973286;28;20525;-87
2022/05/18 06:25:58;;;;;;;12.07;8.73;;;;;;;;;;4972998;28;20047;-88
2022/05/18 06:28:24;;;;;;;13.48;9.40;;;;;;;;;;4972997;28;20072;-87
2022/05/18 06:30:50;;;;;;;13.52;8.75;;;;;;;;;;4972954;28;20049;-87
2022/05/18 06:33:16;;;;;;;12.75;9.18;;;;;;;;;;4972812;28;20050;-86
2022/05/18 06:35:44;;;;;;;12.93;9.00;;;;;;;;;;4956843;28;20041;-87
2022/05/18 06:38:12;;;;;;;11.63;8.57;;;;;;;;;;4954802;28;20038;-87
2022/05/18 06:43:23;;;;;;;16.45;8.60;;;;;;;;;;4977618;28;20089;-86
2022/05/18 06:45:49;;;;;;;15.80;10.20;;;;;;;;;;4976278;28;20049;-86
2022/05/18 06:48:15;;;;;;;14.02;9.48;;;;;;;;;;4976223;28;20042;-85
2022/05/18 06:50:41;;;;;;;12.25;9.68;;;;;;;;;;4975737;28;20038;-85
2022/05/18 06:53:07;;;;;;;12.15;9.05;;;;;;;;;;4959992;28;20374;-86
2022/05/18 06:55:33;;;;;;;13.00;9.98;;;;;;;;;;4959817;28;20154;-86
2022/05/18 06:57:59;;;;;;;13.38;9.15;;;;;;;;;;4975897;28;20457;-86
2022/05/18 07:00:25;;;;;;;13.27;9.25;;;;;;;;;;4976038;28;20045;-86
2022/05/18 07:02:51;;;;;;;13.93;9.73;;;;;;;;;;4976200;28;20504;-86
2022/05/18 07:05:18;;;;;;;16.27;9.43;;;;;;;;;;4959778;28;20093;-89
2022/05/18 07:07:44;;;;;;;14.18;9.15;;;;;;;;;;4976059;28;20509;-88
2022/05/18 07:10:10;;;;;;;16.23;9.98;;;;;;;;;;4975974;28;20038;-87
2022/05/18 07:12:37;;;;;;;14.23;9.27;;;;;;;;;;4975918;28;20038;-87
2022/05/18 07:15:04;;;;;;;15.43;9.75;;;;;;;;;;4975154;28;20121;-87
2022/05/18 07:17:30;;;;;;;14.80;10.25;;;;;;;;;;4975782;28;20034;-87
2022/05/18 07:19:56;;;;;;;14.77;10.02;;;;;;;;;;4975256;28;20047;-86
2022/05/18 07:22:22;;;;;;;15.93;9.93;;;;;;;;;;4975903;28;20057;-87
2022/05/18 07:24:49;;;;;;;14.40;10.25;;;;;;;;;;4975569;28;20510;-88
2022/05/18 07:27:15;;;;;;;16.33;10.10;;;;;;;;;;4991409;28;20490;-86
2022/05/18 07:29:41;;;;;;;13.30;9.18;;;;;;;;;;4975427;28;20046;-86
2022/05/18 07:32:14;;;;;;;14.90;9.50;;;;;;;;;;4956538;28;20046;-87
2022/05/18 07:34:44;;;;;;;11.98;8.98;;;;;;;;;;4956159;28;20097;-87
2022/05/18 07:37:11;;;;;;;14.35;9.80;;;;;;;;;;4969955;28;20043;-86
2022/05/18 07:39:37;;;;;;;13.70;9.43;;;;;;;;;;4992799;28;20034;-86
2022/05/18 07:42:05;;;;;;;13.60;9.10;;;;;;;;;;4974737;28;20048;-86
2022/05/18 07:44:32;;;;;;;14.57;9.48;;;;;;;;;;4975617;28;20042;-86
2022/05/18 07:46:58;;;;;;;12.35;8.80;;;;;;;;;;4974767;28;20046;-86
2022/05/18 07:49:24;;;;;;;12.57;8.85;;;;;;;;;;4994785;28;20054;-86
2022/05/18 07:51:50;;;;;;;12.25;8.93;;;;;;;;;;4996407;28;20050;-86
2022/05/18 07:54:17;;;;;;;13.15;9.18;;;;;;;;;;4979977;28;20042;-93
2022/05/18 07:56:43;;;;;;;12.77;8.48;;;;;;;;;;4980082;28;20379;-85
2022/05/18 07:59:11;;;;;;;14.82;8.30;;;;;;;;;;4978913;28;20057;-85
2022/05/18 08:01:39;;;;;;;13.45;9.27;;;;;;;;;;4978400;28;20394;-85
2022/05/18 08:04:05;;;;;;;12.43;8.85;;;;;;;;;;4962645;28;20053;-86
2022/05/18 08:06:31;;;;;;;11.48;7.97;;;;;;;;;;4978519;28;20125;-86
2022/05/18 08:08:57;;;;;;;12.90;8.73;;;;;;;;;;4978946;28;20482;-86
2022/05/18 08:16:53;;;;;;;11.73;7.67;;;;;;;;;;4978606;28;20046;-85
2022/05/18 08:19:21;;;;;;;15.02;8.75;;;;;;;;;;4978526;28;20042;-87
2022/05/18 08:21:47;;;;;;;10.93;7.22;;;;;;;;;;4978450;28;20054;-87
2022/05/18 08:24:14;;;;;;;10.15;6.80;;;;;;;;;;4978440;28;20050;-87
2022/05/18 08:26:42;;;;;;;8.88;6.32;;;;;;;;;;4962064;28;20133;-87
2022/05/18 08:29:09;;;;;;;9.93;6.50;;;;;;;;;;4962417;28;20049;-87
2022/05/18 08:31:35;;;;;;;9.25;6.60;;;;;;;;;;4978109;28;20177;-87
2022/05/18 08:34:01;;;;;;;12.23;5.90;;;;;;;;;;4978251;28;20533;-86
2022/05/18 08:36:27;;;;;;;10.63;6.65;;;;;;;;;;4978027;28;20038;-87
2022/05/18 08:38:54;;;;;;;10.82;6.75;;;;;;;;;;4978501;28;20117;-87
2022/05/18 08:41:23;;;;;;;10.68;6.03;;;;;;;;;;4978176;28;20121;-86
2022/05/18 08:43:51;;;;;;;12.18;5.82;;;;;;;;;;4962457;28;20237;-87
2022/05/18 08:46:43;;;;;;;11.77;4.47;;;;;;;;;;4977316;28;20485;-87
2022/05/18 08:49:14;;;;;;;9.77;4.70;;;;;;;;;;4978047;28;20612;-87
2022/05/18 08:51:52;;;;;;;7.93;4.05;;;;;;;;;;4978233;28;20089;-87
2022/05/18 08:54:36;;;;;;;7.68;4.10;;;;;;;;;;4977971;28;20082;-89
2022/05/18 08:57:04;;;;;;;9.40;4.82;;;;;;;;;;4977742;28;20049;-87
2022/05/18 08:59:36;;;;;;;9.18;4.07;;;;;;;;;;4977483;28;20050;-86
2022/05/18 09:02:11;;;;;;;9.30;4.50;;;;;;;;;;4977586;28;20046;-86
2022/05/18 09:04:37;;;;;;;;;;;;;;;;;;4978771;28;20133;-87
2022/05/18 09:07:05;;;;;;;8.57;4.80;;;;;;;;;;4977894;28;19973;-88
2022/05/18 09:12:23;;;;;;;9.10;4.13;;;;;;;;;;4959308;28;20055;-87
2022/05/18 09:14:49;;;;;;;10.68;4.93;;;;;;;;;;4958102;28;20130;-89
2022/05/18 09:17:25;;;;;;;12.85;5.15;;;;;;;;;;4958022;28;20126;-87
2022/05/18 09:19:51;;;;;;;8.07;4.20;;;;;;;;;;4957982;28;20043;-87
2022/05/18 09:22:18;;;;;;;12.40;4.93;;;;;;;;;;4957986;28;20057;-87
2022/05/18 09:24:56;;;;;;;10.45;4.43;;;;;;;;;;4958221;28;20363;-87
2022/05/18 09:27:36;;;;;;;7.75;4.03;;;;;;;;;;4958211;28;20057;-88
2022/05/18 09:30:14;;;;;;;9.48;4.60;;;;;;;;;;4941977;29;20452;-87
2022/05/18 09:32:58;;;;;;;9.88;4.80;;;;;;;;;;4955266;28;20043;-87
2022/05/18 09:35:41;;;;;;;9.63;5.03;;;;;;;;;;4922942;29;20050;-88
2022/05/18 09:38:15;;;;;;;7.85;4.35;;;;;;;;;;4938868;29;20115;-85
2022/05/18 09:40:46;;;;;;;9.38;4.40;;;;;;;;;;4938341;29;20043;-85
2022/05/18 09:43:15;;;;;;;10.15;5.00;;;;;;;;;;4938745;29;20050;-84
2022/05/18 09:45:44;;;;;;;9.02;5.28;;;;;;;;;;4938264;29;20092;-85
2022/05/18 09:48:15;;;;;;;12.25;5.63;;;;;;;;;;4938358;29;20121;-84
2022/05/18 09:50:43;;;;;;;9.80;5.28;;;;;;;;;;4938315;29;20051;-85
2022/05/18 09:53:09;;;;;;;9.45;5.55;;;;;;;;;;4938206;29;20399;-85
2022/05/18 09:55:35;;;;;;;9.50;5.22;;;;;;;;;;4938429;29;20074;-84
2022/05/18 09:58:04;;;;;;;9.45;4.95;;;;;;;;;;4938305;29;20514;-85
2022/05/18 10:00:34;;;;;;;9.95;5.07;;;;;;;;;;4938202;29;20050;-84
2022/05/18 10:08:46;;;;;;;10.13;4.75;;;;;;;;;;4936831;29;20059;-84
2022/05/18 10:11:17;;;;;;;9.80;3.88;;;;;;;;;;4937294;29;20043;-83
2022/05/18 10:14:01;;;;;;;9.32;4.70;;;;;;;;;;4947976;28;20125;-84
2022/05/18 10:16:42;;;;;;;9.57;4.50;;;;;;;;;;4976302;28;20089;-85
2022/05/18 10:19:14;;;;;;;8.40;3.92;;;;;;;;;;4965030;28;20174;-84
2022/05/18 10:21:55;;;;;;;12.15;4.30;;;;;;;;;;4953633;28;20502;-84
2022/05/18 10:24:37;;;;;;;9.48;3.80;;;;;;;;;;4952714;28;20512;-83
2022/05/18 10:27:15;;;;;;;8.77;4.15;;;;;;;;;;4953645;28;20297;-84
2022/05/18 10:29:42;;;;;;;9.00;4.20;;;;;;;;;;4952669;29;20049;-84
2022/05/18 10:32:11;;;;;;;7.90;3.88;;;;;;;;;;4954828;29;20042;-84
2022/05/18 10:34:45;;;;;;;9.88;4.10;;;;;;;;;;4952593;29;20573;-85
2022/05/18 10:37:12;;;;;;;8.25;3.83;;;;;;;;;;4954997;29;20049;-86
2022/05/18 10:39:40;;;;;;;7.88;3.80;;;;;;;;;;4953692;29;20039;-84
2022/05/18 10:42:14;;;;;;;9.05;4.43;;;;;;;;;;4953462;29;20078;-85
2022/05/18 10:44:40;;;;;;;9.35;4.00;;;;;;;;;;4953690;29;20055;-85
2022/05/18 10:47:12;;;;;;;13.63;3.92;;;;;;;;;;4953402;28;20050;-84
2022/05/18 10:49:38;;;;;;;12.32;4.32;;;;;;;;;;4953766;29;20043;-83
2022/05/18 10:52:13;;;;;;;10.75;4.35;;;;;;;;;;4953613;29;20047;-84
2022/05/18 10:54:39;;;;;;;9.53;4.10;;;;;;;;;;4953518;29;20383;-85
2022/05/18 10:57:32;;;;;;;10.88;4.85;;;;;;;;;;4954758;29;20275;-85
2022/05/18 11:00:00;;;;;;;8.02;4.28;;;;;;;;;;4950571;29;20098;-84
2022/05/18 11:02:31;;;;;;;7.30;3.92;;;;;;;;;;4953283;28;20050;-84
2022/05/18 11:05:04;;;;;;;7.70;4.13;;;;;;;;;;4954509;29;20043;-84
2022/05/18 11:07:31;;;;;;;8.80;4.57;;;;;;;;;;4953682;29;20102;-84
2022/05/18 11:09:58;;;;;;;11.40;4.47;;;;;;;;;;4954788;29;20105;-84
2022/05/18 11:12:32;;;;;;;13.13;5.00;;;;;;;;;;4954229;29;20051;-84
2022/05/18 11:15:04;;;;;;;11.13;5.22;;;;;;;;;;4955376;29;20497;-83
2022/05/18 11:17:48;;;;;;;11.77;5.93;;;;;;;;;;4955037;29;20043;-83
2022/05/18 11:20:24;;;;;;;10.77;5.00;;;;;;;;;;4960844;28;20055;-84
2022/05/18 11:23:08;;;;;;;11.65;5.28;;;;;;;;;;4942886;28;20131;-84
2022/05/18 11:25:47;;;;;;;9.68;5.13;;;;;;;;;;4962956;28;20557;-84
2022/05/18 11:28:22;;;;;;;9.45;5.43;;;;;;;;;;4963354;28;20054;-84
2022/05/18 11:30:48;;;;;;;;;;;;;;;;;;4961429;28;20043;-83
2022/05/18 11:33:17;;;;;;;10.93;6.18;;;;;;;;;;4977485;28;19929;-84
2022/05/18 11:36:01;;;;;;;9.13;6.50;;;;;;;;;;4960065;28;20118;-84
2022/05/18 11:38:30;;;;;;;12.82;6.30;;;;;;;;;;4959685;28;20080;-85
2022/05/18 11:40:56;;;;;;;10.63;6.20;;;;;;;;;;4959945;28;20117;-84
2022/05/18 11:43:39;;;;;;;12.27;5.65;;;;;;;;;;4960030;28;20451;-84
2022/05/18 11:46:11;;;;;;;8.82;5.40;;;;;;;;;;4959947;28;20046;-84
2022/05/18 11:48:52;;;;;;;12.57;5.30;;;;;;;;;;4959521;28;20387;-83
2022/05/18 11:51:37;;;;;;;9.75;5.65;;;;;;;;;;4960261;28;20553;-83
2022/05/18 11:54:12;;;;;;;11.65;5.68;;;;;;;;;;4959725;28;20050;-84
2022/05/18 11:56:38;;;;;;;;;;;;;;;;;;4959926;28;20047;-85
2022/05/18 11:59:17;;;;;;;8.98;4.47;;;;;;;;;;4959543;28;19924;-83
2022/05/18 12:01:55;;;;;;;13.13;6.47;;;;;;;;;;4959782;28;20081;-84
2022/05/18 12:04:40;;;;;;;13.18;7.10;;;;;;;;;;4959576;28;20136;-84
2022/05/18 12:07:10;;;;;;;12.10;7.40;;;;;;;;;;4976820;28;20386;-83
2022/05/18 12:09:42;;;;;;;13.88;5.95;;;;;;;;;;4959561;28;20047;-84
2022/05/18 12:12:11;;;;;;;8.05;4.53;;;;;;;;;;4959307;28;20047;-83
2022/05/18 12:14:42;;;;;;;9.18;3.67;;;;;;;;;;4943442;28;20049;-84
2022/05/18 12:17:14;;;;;;;7.07;3.30;;;;;;;;;;4943312;28;20398;-84
2022/05/18 12:19:51;;;;;;;7.55;3.38;;;;;;;;;;4959124;28;20050;-84
2022/05/18 12:22:25;;;;;;;11.75;5.28;;;;;;;;;;4959152;28;20125;-84
2022/05/18 12:24:52;;;;;;;9.40;5.13;;;;;;;;;;4959510;28;20130;-84
2022/05/18 12:27:19;;;;;;;11.10;5.75;;;;;;;;;;4959238;28;20513;-84
2022/05/18 12:29:46;;;;;;;15.80;9.23;;;;;;;;;;4959276;28;20047;-84
2022/05/18 12:32:12;;;;;;;16.63;9.25;;;;;;;;;;4959118;28;20380;-84
2022/05/18 12:34:42;;;;;;;15.55;9.00;;;;;;;;;;4958381;28;20402;-83
2022/05/18 12:37:08;;;;;;;13.10;9.23;;;;;;;;;;4976079;28;20501;-82
2022/05/18 12:39:41;;;;;;;15.23;9.70;;;;;;;;;;4976423;28;20039;-83
2022/05/18 12:42:09;;;;;;;14.30;9.10;;;;;;;;;;4957711;28;20450;-87
2022/05/18 12:44:40;;;;;;;12.55;8.95;;;;;;;;;;4943006;28;20050;-83
2022/05/18 12:47:18;;;;;;;19.05;11.48;;;;;;;;;;4958529;28;20053;-83
2022/05/18 12:49:45;;;;;;;16.15;9.27;;;;;;;;;;4991102;28;20050;-85
2022/05/18 12:52:14;;;;;;;10.05;7.57;;;;;;;;;;4958712;28;20074;-83
2022/05/18 12:54:50;;;;;;;16.08;7.20;;;;;;;;;;4958866;28;20078;-84
2022/05/18 12:57:18;;;;;;;14.57;6.97;;;;;;;;;;4958451;28;20042;-83
2022/05/18 12:59:58;;;;;;;10.90;7.63;;;;;;;;;;4958467;28;20077;-83
2022/05/18 13:02:36;;;;;;;14.95;9.10;;;;;;;;;;4975863;28;20042;-83
2022/05/18 13:05:05;;;;;;;13.38;8.55;;;;;;;;;;4958605;28;20049;-83
2022/05/18 13:07:33;;;;;;;10.20;7.57;;;;;;;;;;4970577;23;20062;-86
2022/05/18 13:10:10;;;;;;;14.82;9.10;;;;;;;;;;4960376;28;20057;-83
2022/05/18 13:12:37;;;;;;;12.02;8.48;;;;;;;;;;4977468;28;20046;-83
2022/05/18 13:15:26;;;;;;;13.57;9.23;;;;;;;;;;4995175;28;20046;-83
2022/05/18 13:17:57;;;;;;;14.38;8.43;;;;;;;;;;4973612;28;20549;-84
2022/05/18 13:20:26;;;;;;;13.43;9.40;;;;;;;;;;4975457;28;20047;-84
2022/05/18 13:23:00;;;;;;;11.77;7.57;;;;;;;;;;4975178;28;20379;-84
2022/05/18 13:25:28;;;;;;;11.70;8.98;;;;;;;;;;4958449;28;20046;-84
2022/05/18 13:27:56;;;;;;;13.40;7.50;;;;;;;;;;4957680;28;20038;-83
2022/05/18 13:30:33;;;;;;;11.02;7.35;;;;;;;;;;4975363;28;20041;-83
2022/05/18 13:32:59;;;;;;;9.82;5.60;;;;;;;;;;4957863;28;20129;-83
2022/05/18 13:35:27;;;;;;;9.82;5.07;;;;;;;;;;4975394;28;20129;-83
2022/05/18 13:44:22;;;;;;;9.50;4.75;;;;;;;;;;4957533;28;20043;-84
2022/05/18 13:46:48;;;;;;;9.50;5.15;;;;;;;;;;4956720;28;20466;-83
2022/05/18 13:49:16;;;;;;;9.68;6.35;;;;;;;;;;4957347;28;20498;-83
2022/05/18 13:51:48;;;;;;;12.02;6.70;;;;;;;;;;4957567;28;20046;-83
2022/05/18 14:09:51;;;;;;;12.77;7.93;;;;;;;;;;4950788;29;20506;-84
2022/05/18 14:15:21;;;;;;;27.70;20.35;;;;;;;;;;4953912;29;20067;-84
2022/05/18 14:17:47;;;;;;;28.30;19.45;;;;;;;;;;4953943;28;20089;-82
2022/05/18 14:20:20;;;;;;;28.67;21.23;;;;;;;;;;4952938;29;20061;-83
2022/05/18 14:22:49;;;;;;;31.50;21.15;;;;;;;;;;4953886;29;20039;-82
2022/05/18 14:25:15;;;;;;;31.63;20.75;;;;;;;;;;4954836;29;20047;-83
2022/05/18 14:27:45;;;;;;;24.45;20.33;;;;;;;;;;4953684;28;20039;-83
2022/05/18 14:30:15;;;;;;;32.30;21.13;;;;;;;;;;4953819;28;20050;-83
2022/05/18 14:32:43;;;;;;;28.90;20.13;;;;;;;;;;4954099;29;20053;-83
2022/05/18 14:35:11;;;;;;;31.15;20.73;;;;;;;;;;4953503;28;20046;-83
2022/05/18 14:37:50;;;;;;;32.25;20.92;;;;;;;;;;4953517;28;20410;-83
2022/05/18 14:40:20;;;;;;;30.15;19.55;;;;;;;;;;4954893;29;20035;-83
2022/05/18 14:42:48;;;;;;;28.67;20.67;;;;;;;;;;4952899;29;20118;-83
2022/05/18 14:45:23;;;;;;;31.13;20.77;;;;;;;;;;4953669;29;20106;-82
2022/05/18 14:47:49;;;;;;;;;;;;;;;;;;4954122;28;20039;-83
2022/05/18 14:50:23;;;;;;;37.47;20.98;;;;;;;;;;4953316;29;19925;-83
2022/05/18 14:52:55;;;;;;;25.67;19.60;;;;;;;;;;4959068;28;20046;-83
2022/05/18 14:55:27;;;;;;;29.98;19.98;;;;;;;;;;4972896;28;20050;-84
2022/05/18 14:57:53;;;;;;;26.90;20.13;;;;;;;;;;4967352;28;20171;-83
2022/05/18 15:00:22;;;;;;;29.48;20.70;;;;;;;;;;4959843;28;20043;-81
2022/05/18 15:02:49;;;;;;;28.35;21.25;;;;;;;;;;4959154;29;20102;-84
2022/05/18 15:05:24;;;;;;;33.13;22.63;;;;;;;;;;4961091;28;20054;-84
2022/05/18 15:07:52;;;;;;;35.53;21.63;;;;;;;;;;4959667;28;20047;-83
2022/05/18 15:10:35;;;;;;;28.30;22.10;;;;;;;;;;4959517;28;20081;-84
2022/05/18 15:13:12;;;;;;;28.30;20.27;;;;;;;;;;4959578;29;20050;-83
2022/05/18 15:15:43;;;;;;;32.20;22.25;;;;;;;;;;4959803;28;20122;-84
2022/05/18 15:18:20;;;;;;;29.17;20.85;;;;;;;;;;4943497;29;20035;-83
2022/05/18 15:20:52;;;;;;;29.88;22.13;;;;;;;;;;4960762;28;20055;-82
2022/05/18 15:23:20;;;;;;;30.77;21.58;;;;;;;;;;4946240;28;20409;-82
2022/05/18 15:25:48;;;;;;;28.95;20.88;;;;;;;;;;4978697;28;20046;-82
2022/05/18 15:28:16;;;;;;;30.45;21.42;;;;;;;;;;4979057;28;20466;-82
2022/05/18 15:30:46;;;;;;;32.10;23.70;;;;;;;;;;4978886;28;20359;-83